Beverly Hills, Michigan
Current Conditions -  °F | °C
As of 9:15 AM on Saturday 27 Dec 2014 (Local Time) from KVLL Reporting Station
Haze Haze  
Wind Chill: 41°   Ceiling: 500
Heat Index: 44°   Visibility: 2.5mi
Dew Point: 42°   Wind: 6mph
Humidity: 91%   Direction: 190°S
Pressure: 30.08"   Gusts: NA
Location:  42.52°N, 83.23°W
Report Text: KVLL 271415Z AUTO 19005KT 2 1/2SM BR OVC005 07/05 A3008 RMK AO2 T00680054
Loading
Personal Weather Stations






























Interactive Weather Map New forecast layout! Learn more

10-Day Weather Forecast

Advertisements
Track Severe Weather on mobile